sensor_id;sensor_type;location;lat;lon;timestamp;P1;durP1;ratioP1;P2;durP2;ratioP2
34373;SDS011;20637;55.770;37.592;2022-08-30T00:00:50;12.30;;;7.78;;
34373;SDS011;20637;55.770;37.592;2022-08-30T00:03:35;14.95;;;8.77;;
34373;SDS011;20637;55.770;37.592;2022-08-30T00:06:07;16.30;;;7.88;;
34373;SDS011;20637;55.770;37.592;2022-08-30T00:08:35;11.70;;;8.80;;
34373;SDS011;20637;55.770;37.592;2022-08-30T00:11:02;14.52;;;8.02;;
34373;SDS011;20637;55.770;37.592;2022-08-30T00:13:29;11.77;;;7.88;;
34373;SDS011;20637;55.770;37.592;2022-08-30T00:15:55;13.02;;;8.27;;
34373;SDS011;20637;55.770;37.592;2022-08-30T00:18:21;14.77;;;9.13;;
34373;SDS011;20637;55.770;37.592;2022-08-30T00:20:48;12.52;;;8.02;;
34373;SDS011;20637;55.770;37.592;2022-08-30T00:23:14;11.70;;;7.95;;
34373;SDS011;20637;55.770;37.592;2022-08-30T00:25:42;13.50;;;8.65;;
34373;SDS011;20637;55.770;37.592;2022-08-30T00:28:08;13.52;;;8.10;;
34373;SDS011;20637;55.770;37.592;2022-08-30T00:30:36;14.40;;;8.60;;
34373;SDS011;20637;55.770;37.592;2022-08-30T00:33:02;13.00;;;8.80;;
34373;SDS011;20637;55.770;37.592;2022-08-30T00:35:27;15.00;;;8.65;;
34373;SDS011;20637;55.770;37.592;2022-08-30T00:37:53;17.10;;;8.85;;
34373;SDS011;20637;55.770;37.592;2022-08-30T00:40:19;15.25;;;8.73;;
34373;SDS011;20637;55.770;37.592;2022-08-30T00:42:46;12.60;;;8.43;;
34373;SDS011;20637;55.770;37.592;2022-08-30T00:47:40;18.10;;;9.38;;
34373;SDS011;20637;55.770;37.592;2022-08-30T00:50:06;14.77;;;8.32;;
34373;SDS011;20637;55.770;37.592;2022-08-30T00:52:34;12.95;;;8.18;;
34373;SDS011;20637;55.770;37.592;2022-08-30T00:55:03;13.18;;;8.55;;
34373;SDS011;20637;55.770;37.592;2022-08-30T00:57:29;17.33;;;8.63;;
34373;SDS011;20637;55.770;37.592;2022-08-30T00:59:56;16.40;;;9.00;;
34373;SDS011;20637;55.770;37.592;2022-08-30T01:02:23;14.13;;;8.80;;
34373;SDS011;20637;55.770;37.592;2022-08-30T01:04:52;15.50;;;8.93;;
34373;SDS011;20637;55.770;37.592;2022-08-30T01:07:19;15.73;;;8.75;;
34373;SDS011;20637;55.770;37.592;2022-08-30T01:09:45;14.90;;;8.77;;
34373;SDS011;20637;55.770;37.592;2022-08-30T01:12:11;17.38;;;9.90;;
34373;SDS011;20637;55.770;37.592;2022-08-30T01:14:37;16.90;;;9.30;;
34373;SDS011;20637;55.770;37.592;2022-08-30T01:17:03;13.73;;;8.45;;
34373;SDS011;20637;55.770;37.592;2022-08-30T01:25:07;12.82;;;7.75;;
34373;SDS011;20637;55.770;37.592;2022-08-30T01:27:37;12.75;;;7.95;;
34373;SDS011;20637;55.770;37.592;2022-08-30T01:30:07;12.90;;;8.05;;
34373;SDS011;20637;55.770;37.592;2022-08-30T01:32:37;13.50;;;7.78;;
34373;SDS011;20637;55.770;37.592;2022-08-30T01:35:05;13.02;;;7.70;;
34373;SDS011;20637;55.770;37.592;2022-08-30T01:37:32;11.75;;;7.85;;
34373;SDS011;20637;55.770;37.592;2022-08-30T01:39:58;11.52;;;7.65;;
34373;SDS011;20637;55.770;37.592;2022-08-30T01:42:24;14.32;;;8.07;;
34373;SDS011;20637;55.770;37.592;2022-08-30T01:44:50;11.73;;;8.10;;
34373;SDS011;20637;55.770;37.592;2022-08-30T01:47:16;15.43;;;8.18;;
34373;SDS011;20637;55.770;37.592;2022-08-30T01:49:43;16.58;;;8.00;;
34373;SDS011;20637;55.770;37.592;2022-08-30T01:52:11;13.95;;;8.05;;
34373;SDS011;20637;55.770;37.592;2022-08-30T01:54:38;9.77;;;7.63;;
34373;SDS011;20637;55.770;37.592;2022-08-30T01:57:06;13.40;;;8.30;;
34373;SDS011;20637;55.770;37.592;2022-08-30T01:59:34;15.55;;;8.05;;
34373;SDS011;20637;55.770;37.592;2022-08-30T02:02:00;13.68;;;8.68;;
34373;SDS011;20637;55.770;37.592;2022-08-30T02:04:27;12.90;;;8.50;;
34373;SDS011;20637;55.770;37.592;2022-08-30T02:06:52;12.25;;;8.07;;
34373;SDS011;20637;55.770;37.592;2022-08-30T02:09:18;14.40;;;8.15;;
34373;SDS011;20637;55.770;37.592;2022-08-30T02:11:44;14.60;;;7.95;;
34373;SDS011;20637;55.770;37.592;2022-08-30T02:14:12;13.25;;;8.40;;
34373;SDS011;20637;55.770;37.592;2022-08-30T02:16:37;14.93;;;8.40;;
34373;SDS011;20637;55.770;37.592;2022-08-30T02:19:04;11.85;;;8.15;;
34373;SDS011;20637;55.770;37.592;2022-08-30T02:21:31;13.35;;;8.45;;
34373;SDS011;20637;55.770;37.592;2022-08-30T02:23:56;12.93;;;8.27;;
34373;SDS011;20637;55.770;37.592;2022-08-30T02:26:22;11.57;;;7.90;;
34373;SDS011;20637;55.770;37.592;2022-08-30T02:28:48;12.57;;;8.40;;
34373;SDS011;20637;55.770;37.592;2022-08-30T02:31:15;13.85;;;8.02;;
34373;SDS011;20637;55.770;37.592;2022-08-30T02:33:41;12.90;;;8.13;;
34373;SDS011;20637;55.770;37.592;2022-08-30T02:36:07;14.68;;;8.80;;
34373;SDS011;20637;55.770;37.592;2022-08-30T02:38:33;15.23;;;8.40;;
34373;SDS011;20637;55.770;37.592;2022-08-30T02:40:59;13.63;;;8.77;;
34373;SDS011;20637;55.770;37.592;2022-08-30T02:43:25;13.38;;;8.93;;
34373;SDS011;20637;55.770;37.592;2022-08-30T02:45:51;10.93;;;8.43;;
34373;SDS011;20637;55.770;37.592;2022-08-30T02:48:17;12.48;;;8.82;;
34373;SDS011;20637;55.770;37.592;2022-08-30T02:50:44;12.93;;;9.20;;
34373;SDS011;20637;55.770;37.592;2022-08-30T02:53:12;14.73;;;9.73;;
34373;SDS011;20637;55.770;37.592;2022-08-30T02:55:38;16.98;;;9.07;;
34373;SDS011;20637;55.770;37.592;2022-08-30T02:58:03;14.50;;;9.80;;
34373;SDS011;20637;55.770;37.592;2022-08-30T03:00:30;16.08;;;9.48;;
34373;SDS011;20637;55.770;37.592;2022-08-30T03:02:55;14.30;;;9.43;;
34373;SDS011;20637;55.770;37.592;2022-08-30T03:05:21;15.73;;;9.60;;
34373;SDS011;20637;55.770;37.592;2022-08-30T03:07:48;13.40;;;8.57;;
34373;SDS011;20637;55.770;37.592;2022-08-30T03:10:14;15.15;;;9.32;;
34373;SDS011;20637;55.770;37.592;2022-08-30T03:12:40;12.20;;;9.15;;
34373;SDS011;20637;55.770;37.592;2022-08-30T03:15:06;12.25;;;9.32;;
34373;SDS011;20637;55.770;37.592;2022-08-30T03:17:34;12.60;;;8.13;;
34373;SDS011;20637;55.770;37.592;2022-08-30T03:19:59;14.00;;;10.07;;
34373;SDS011;20637;55.770;37.592;2022-08-30T03:22:26;10.55;;;8.55;;
34373;SDS011;20637;55.770;37.592;2022-08-30T03:24:53;20.45;;;10.95;;
34373;SDS011;20637;55.770;37.592;2022-08-30T03:27:24;12.95;;;9.57;;
34373;SDS011;20637;55.770;37.592;2022-08-30T03:29:50;16.77;;;10.02;;
34373;SDS011;20637;55.770;37.592;2022-08-30T03:32:15;15.57;;;10.23;;
34373;SDS011;20637;55.770;37.592;2022-08-30T03:34:41;17.08;;;9.60;;
34373;SDS011;20637;55.770;37.592;2022-08-30T03:37:07;15.52;;;9.43;;
34373;SDS011;20637;55.770;37.592;2022-08-30T03:39:33;14.50;;;10.55;;
34373;SDS011;20637;55.770;37.592;2022-08-30T03:41:58;12.23;;;9.77;;
34373;SDS011;20637;55.770;37.592;2022-08-30T03:44:24;17.20;;;11.85;;
34373;SDS011;20637;55.770;37.592;2022-08-30T03:46:50;16.17;;;10.60;;
34373;SDS011;20637;55.770;37.592;2022-08-30T03:49:16;15.15;;;9.85;;
34373;SDS011;20637;55.770;37.592;2022-08-30T03:51:42;16.60;;;10.32;;
34373;SDS011;20637;55.770;37.592;2022-08-30T03:54:08;16.20;;;11.02;;
34373;SDS011;20637;55.770;37.592;2022-08-30T03:56:34;16.88;;;11.45;;
34373;SDS011;20637;55.770;37.592;2022-08-30T03:59:00;13.85;;;9.85;;
34373;SDS011;20637;55.770;37.592;2022-08-30T04:01:26;13.70;;;10.10;;
34373;SDS011;20637;55.770;37.592;2022-08-30T04:03:51;16.88;;;10.70;;
34373;SDS011;20637;55.770;37.592;2022-08-30T04:06:17;16.85;;;10.02;;
34373;SDS011;20637;55.770;37.592;2022-08-30T04:08:43;16.08;;;10.20;;
34373;SDS011;20637;55.770;37.592;2022-08-30T04:11:10;12.45;;;10.23;;
34373;SDS011;20637;55.770;37.592;2022-08-30T04:13:36;14.63;;;10.57;;
34373;SDS011;20637;55.770;37.592;2022-08-30T04:16:01;15.70;;;10.65;;
34373;SDS011;20637;55.770;37.592;2022-08-30T04:18:27;17.52;;;10.52;;
34373;SDS011;20637;55.770;37.592;2022-08-30T04:20:54;15.13;;;10.85;;
34373;SDS011;20637;55.770;37.592;2022-08-30T04:23:19;13.20;;;10.52;;
34373;SDS011;20637;55.770;37.592;2022-08-30T04:25:45;16.13;;;10.30;;
34373;SDS011;20637;55.770;37.592;2022-08-30T04:28:11;14.13;;;10.82;;
34373;SDS011;20637;55.770;37.592;2022-08-30T04:30:38;17.77;;;9.88;;
34373;SDS011;20637;55.770;37.592;2022-08-30T04:33:05;14.43;;;10.80;;
34373;SDS011;20637;55.770;37.592;2022-08-30T04:35:31;14.93;;;11.38;;
34373;SDS011;20637;55.770;37.592;2022-08-30T04:37:57;19.30;;;11.68;;
34373;SDS011;20637;55.770;37.592;2022-08-30T04:40:23;15.65;;;11.60;;
34373;SDS011;20637;55.770;37.592;2022-08-30T04:42:49;13.15;;;11.65;;
34373;SDS011;20637;55.770;37.592;2022-08-30T04:45:18;17.70;;;12.82;;
34373;SDS011;20637;55.770;37.592;2022-08-30T04:47:45;18.23;;;12.20;;
34373;SDS011;20637;55.770;37.592;2022-08-30T04:50:12;15.07;;;12.07;;
34373;SDS011;20637;55.770;37.592;2022-08-30T04:52:39;15.95;;;12.23;;
34373;SDS011;20637;55.770;37.592;2022-08-30T04:55:05;16.67;;;11.88;;
34373;SDS011;20637;55.770;37.592;2022-08-30T04:57:33;19.17;;;12.80;;
34373;SDS011;20637;55.770;37.592;2022-08-30T04:59:59;16.35;;;12.38;;
34373;SDS011;20637;55.770;37.592;2022-08-30T05:02:25;18.85;;;12.27;;
34373;SDS011;20637;55.770;37.592;2022-08-30T05:04:50;16.40;;;12.57;;
34373;SDS011;20637;55.770;37.592;2022-08-30T05:07:35;18.73;;;12.57;;
34373;SDS011;20637;55.770;37.592;2022-08-30T05:10:01;19.00;;;12.57;;
34373;SDS011;20637;55.770;37.592;2022-08-30T05:12:28;18.10;;;13.57;;
34373;SDS011;20637;55.770;37.592;2022-08-30T05:14:54;21.00;;;12.52;;
34373;SDS011;20637;55.770;37.592;2022-08-30T05:17:22;18.17;;;13.27;;
34373;SDS011;20637;55.770;37.592;2022-08-30T05:19:48;16.85;;;11.95;;
34373;SDS011;20637;55.770;37.592;2022-08-30T05:22:14;16.35;;;12.57;;
34373;SDS011;20637;55.770;37.592;2022-08-30T05:24:39;15.60;;;12.63;;
34373;SDS011;20637;55.770;37.592;2022-08-30T05:27:05;16.00;;;12.18;;
34373;SDS011;20637;55.770;37.592;2022-08-30T05:29:31;18.73;;;13.13;;
34373;SDS011;20637;55.770;37.592;2022-08-30T05:31:57;17.70;;;12.93;;
34373;SDS011;20637;55.770;37.592;2022-08-30T05:34:23;18.25;;;13.25;;
34373;SDS011;20637;55.770;37.592;2022-08-30T05:36:49;16.85;;;12.52;;
34373;SDS011;20637;55.770;37.592;2022-08-30T05:39:15;18.50;;;13.45;;
34373;SDS011;20637;55.770;37.592;2022-08-30T05:41:40;19.02;;;13.10;;
34373;SDS011;20637;55.770;37.592;2022-08-30T05:44:07;21.10;;;14.07;;
34373;SDS011;20637;55.770;37.592;2022-08-30T05:46:34;17.25;;;13.55;;
34373;SDS011;20637;55.770;37.592;2022-08-30T05:49:01;18.27;;;13.02;;
34373;SDS011;20637;55.770;37.592;2022-08-30T05:51:29;18.92;;;14.27;;
34373;SDS011;20637;55.770;37.592;2022-08-30T05:53:56;19.08;;;13.90;;
34373;SDS011;20637;55.770;37.592;2022-08-30T05:56:24;19.13;;;14.30;;
34373;SDS011;20637;55.770;37.592;2022-08-30T05:58:53;24.90;;;14.55;;
34373;SDS011;20637;55.770;37.592;2022-08-30T06:01:23;19.17;;;13.13;;
34373;SDS011;20637;55.770;37.592;2022-08-30T06:03:52;18.08;;;13.40;;
34373;SDS011;20637;55.770;37.592;2022-08-30T06:06:19;20.17;;;14.13;;
34373;SDS011;20637;55.770;37.592;2022-08-30T06:08:45;22.02;;;14.63;;
34373;SDS011;20637;55.770;37.592;2022-08-30T06:11:13;17.98;;;14.38;;
34373;SDS011;20637;55.770;37.592;2022-08-30T06:13:41;18.40;;;13.43;;
34373;SDS011;20637;55.770;37.592;2022-08-30T06:16:07;18.00;;;13.43;;
34373;SDS011;20637;55.770;37.592;2022-08-30T06:18:34;18.17;;;13.82;;
34373;SDS011;20637;55.770;37.592;2022-08-30T06:21:00;17.00;;;15.05;;
34373;SDS011;20637;55.770;37.592;2022-08-30T06:23:25;17.35;;;14.82;;
34373;SDS011;20637;55.770;37.592;2022-08-30T06:25:53;20.45;;;13.98;;
34373;SDS011;20637;55.770;37.592;2022-08-30T06:28:19;17.83;;;13.82;;
34373;SDS011;20637;55.770;37.592;2022-08-30T06:30:44;17.92;;;14.07;;
34373;SDS011;20637;55.770;37.592;2022-08-30T06:33:10;18.13;;;14.38;;
34373;SDS011;20637;55.770;37.592;2022-08-30T06:35:36;22.25;;;14.63;;
34373;SDS011;20637;55.770;37.592;2022-08-30T06:38:02;18.40;;;13.98;;
34373;SDS011;20637;55.770;37.592;2022-08-30T06:40:28;18.23;;;13.10;;
34373;SDS011;20637;55.770;37.592;2022-08-30T06:42:54;23.75;;;13.90;;
34373;SDS011;20637;55.770;37.592;2022-08-30T06:45:20;22.10;;;15.45;;
34373;SDS011;20637;55.770;37.592;2022-08-30T06:47:46;20.00;;;14.55;;
34373;SDS011;20637;55.770;37.592;2022-08-30T06:50:12;23.17;;;14.43;;
34373;SDS011;20637;55.770;37.592;2022-08-30T06:52:39;20.50;;;13.35;;
34373;SDS011;20637;55.770;37.592;2022-08-30T06:55:07;22.48;;;14.85;;
34373;SDS011;20637;55.770;37.592;2022-08-30T06:57:39;16.02;;;13.52;;
34373;SDS011;20637;55.770;37.592;2022-08-30T07:00:06;17.00;;;12.48;;
34373;SDS011;20637;55.770;37.592;2022-08-30T07:02:35;21.10;;;12.93;;
34373;SDS011;20637;55.770;37.592;2022-08-30T07:05:02;16.30;;;13.50;;
34373;SDS011;20637;55.770;37.592;2022-08-30T07:07:29;18.80;;;11.95;;
34373;SDS011;20637;55.770;37.592;2022-08-30T07:09:55;19.65;;;13.05;;
34373;SDS011;20637;55.770;37.592;2022-08-30T07:12:20;17.95;;;13.20;;
34373;SDS011;20637;55.770;37.592;2022-08-30T07:14:46;18.20;;;13.07;;
34373;SDS011;20637;55.770;37.592;2022-08-30T07:17:12;20.33;;;13.75;;
34373;SDS011;20637;55.770;37.592;2022-08-30T07:19:56;16.30;;;12.82;;
34373;SDS011;20637;55.770;37.592;2022-08-30T07:22:22;16.80;;;13.93;;
34373;SDS011;20637;55.770;37.592;2022-08-30T07:24:48;18.30;;;13.45;;
34373;SDS011;20637;55.770;37.592;2022-08-30T07:27:13;22.13;;;14.15;;
34373;SDS011;20637;55.770;37.592;2022-08-30T07:29:39;19.52;;;13.75;;
34373;SDS011;20637;55.770;37.592;2022-08-30T07:32:05;22.27;;;14.23;;
34373;SDS011;20637;55.770;37.592;2022-08-30T07:34:31;17.73;;;14.00;;
34373;SDS011;20637;55.770;37.592;2022-08-30T07:36:57;20.75;;;13.63;;
34373;SDS011;20637;55.770;37.592;2022-08-30T07:39:23;18.73;;;15.00;;
34373;SDS011;20637;55.770;37.592;2022-08-30T07:41:48;23.35;;;15.57;;
34373;SDS011;20637;55.770;37.592;2022-08-30T07:44:15;18.10;;;13.52;;
34373;SDS011;20637;55.770;37.592;2022-08-30T07:46:41;18.45;;;12.45;;
34373;SDS011;20637;55.770;37.592;2022-08-30T07:49:07;16.45;;;13.65;;
34373;SDS011;20637;55.770;37.592;2022-08-30T07:51:34;21.08;;;14.30;;
34373;SDS011;20637;55.770;37.592;2022-08-30T07:54:02;16.33;;;14.13;;
34373;SDS011;20637;55.770;37.592;2022-08-30T07:56:27;19.02;;;13.80;;
34373;SDS011;20637;55.770;37.592;2022-08-30T07:58:53;18.42;;;14.48;;
34373;SDS011;20637;55.770;37.592;2022-08-30T08:01:19;17.35;;;13.52;;
34373;SDS011;20637;55.770;37.592;2022-08-30T08:03:47;14.77;;;13.23;;
34373;SDS011;20637;55.770;37.592;2022-08-30T08:06:15;18.15;;;13.88;;
34373;SDS011;20637;55.770;37.592;2022-08-30T08:08:42;21.50;;;14.50;;
34373;SDS011;20637;55.770;37.592;2022-08-30T08:11:11;18.35;;;13.18;;
34373;SDS011;20637;55.770;37.592;2022-08-30T08:13:39;17.38;;;13.15;;
34373;SDS011;20637;55.770;37.592;2022-08-30T08:16:06;18.02;;;13.00;;
34373;SDS011;20637;55.770;37.592;2022-08-30T08:18:32;18.00;;;12.57;;
34373;SDS011;20637;55.770;37.592;2022-08-30T08:20:58;21.35;;;13.43;;
34373;SDS011;20637;55.770;37.592;2022-08-30T08:23:27;20.35;;;13.25;;
34373;SDS011;20637;55.770;37.592;2022-08-30T08:25:53;19.88;;;13.57;;
34373;SDS011;20637;55.770;37.592;2022-08-30T08:28:19;17.52;;;13.05;;
34373;SDS011;20637;55.770;37.592;2022-08-30T08:30:45;17.60;;;12.75;;
34373;SDS011;20637;55.770;37.592;2022-08-30T08:33:12;16.20;;;12.95;;
34373;SDS011;20637;55.770;37.592;2022-08-30T08:35:38;256.27;;;29.92;;
34373;SDS011;20637;55.770;37.592;2022-08-30T08:38:04;20.80;;;14.55;;
34373;SDS011;20637;55.770;37.592;2022-08-30T08:40:33;19.02;;;13.32;;
34373;SDS011;20637;55.770;37.592;2022-08-30T08:43:10;20.40;;;13.43;;
34373;SDS011;20637;55.770;37.592;2022-08-30T08:48:39;17.35;;;12.10;;
34373;SDS011;20637;55.770;37.592;2022-08-30T08:51:14;15.23;;;12.05;;
34373;SDS011;20637;55.770;37.592;2022-08-30T08:54:11;16.00;;;12.25;;
34373;SDS011;20637;55.770;37.592;2022-08-30T08:56:40;17.58;;;12.38;;
34373;SDS011;20637;55.770;37.592;2022-08-30T08:59:07;14.82;;;11.85;;
34373;SDS011;20637;55.770;37.592;2022-08-30T09:01:34;15.07;;;11.80;;
34373;SDS011;20637;55.770;37.592;2022-08-30T09:04:04;18.65;;;12.40;;
34373;SDS011;20637;55.770;37.592;2022-08-30T09:09:15;12.93;;;11.48;;
34373;SDS011;20637;55.770;37.592;2022-08-30T09:11:45;14.57;;;11.40;;
34373;SDS011;20637;55.770;37.592;2022-08-30T09:14:13;14.73;;;12.32;;
34373;SDS011;20637;55.770;37.592;2022-08-30T09:16:44;16.13;;;11.05;;
34373;SDS011;20637;55.770;37.592;2022-08-30T09:19:11;14.07;;;11.30;;
34373;SDS011;20637;55.770;37.592;2022-08-30T09:22:13;18.63;;;12.43;;
34373;SDS011;20637;55.770;37.592;2022-08-30T09:24:59;16.42;;;11.32;;
34373;SDS011;20637;55.770;37.592;2022-08-30T09:29:59;15.40;;;11.50;;
34373;SDS011;20637;55.770;37.592;2022-08-30T09:32:34;18.85;;;12.40;;
34373;SDS011;20637;55.770;37.592;2022-08-30T09:35:16;15.50;;;11.45;;
34373;SDS011;20637;55.770;37.592;2022-08-30T09:37:58;14.63;;;12.50;;
34373;SDS011;20637;55.770;37.592;2022-08-30T09:40:36;13.88;;;11.85;;
34373;SDS011;20637;55.770;37.592;2022-08-30T09:43:08;16.65;;;12.00;;
34373;SDS011;20637;55.770;37.592;2022-08-30T09:45:44;17.33;;;11.98;;
34373;SDS011;20637;55.770;37.592;2022-08-30T09:48:33;13.48;;;11.43;;
34373;SDS011;20637;55.770;37.592;2022-08-30T09:57:22;16.58;;;12.50;;
34373;SDS011;20637;55.770;37.592;2022-08-30T10:04:42;21.48;;;13.25;;
34373;SDS011;20637;55.770;37.592;2022-08-30T10:07:22;13.93;;;11.60;;
34373;SDS011;20637;55.770;37.592;2022-08-30T10:13:04;15.02;;;11.57;;
34373;SDS011;20637;55.770;37.592;2022-08-30T10:15:40;18.70;;;11.98;;
34373;SDS011;20637;55.770;37.592;2022-08-30T10:18:17;14.05;;;12.02;;
34373;SDS011;20637;55.770;37.592;2022-08-30T10:20:55;19.83;;;12.98;;
34373;SDS011;20637;55.770;37.592;2022-08-30T10:23:36;15.80;;;13.15;;
34373;SDS011;20637;55.770;37.592;2022-08-30T10:29:13;19.17;;;13.13;;
34373;SDS011;20637;55.770;37.592;2022-08-30T10:31:46;14.77;;;12.57;;
34373;SDS011;20637;55.770;37.592;2022-08-30T10:37:22;16.17;;;12.93;;
34373;SDS011;20637;55.770;37.592;2022-08-30T10:39:52;16.42;;;12.43;;
34373;SDS011;20637;55.770;37.592;2022-08-30T10:42:29;15.73;;;12.00;;
34373;SDS011;20637;55.770;37.592;2022-08-30T10:45:00;20.40;;;12.90;;
34373;SDS011;20637;55.770;37.592;2022-08-30T10:47:33;18.00;;;12.13;;
34373;SDS011;20637;55.770;37.592;2022-08-30T10:50:12;15.50;;;12.75;;
34373;SDS011;20637;55.770;37.592;2022-08-30T10:52:46;15.05;;;12.88;;
34373;SDS011;20637;55.770;37.592;2022-08-30T10:55:20;14.30;;;12.80;;
34373;SDS011;20637;55.770;37.592;2022-08-30T10:57:54;18.27;;;12.93;;
34373;SDS011;20637;55.770;37.592;2022-08-30T11:00:28;15.63;;;12.02;;
34373;SDS011;20637;55.770;37.592;2022-08-30T11:11:54;13.75;;;11.43;;
34373;SDS011;20637;55.770;37.592;2022-08-30T11:14:37;15.88;;;11.43;;
34373;SDS011;20637;55.770;37.592;2022-08-30T11:17:05;13.38;;;11.85;;
34373;SDS011;20637;55.770;37.592;2022-08-30T11:19:45;15.50;;;11.73;;
34373;SDS011;20637;55.770;37.592;2022-08-30T11:22:12;19.20;;;12.05;;
34373;SDS011;20637;55.770;37.592;2022-08-30T11:35:46;16.48;;;11.68;;
34373;SDS011;20637;55.770;37.592;2022-08-30T11:40:50;18.45;;;10.35;;
34373;SDS011;20637;55.770;37.592;2022-08-30T11:48:44;19.05;;;12.35;;
34373;SDS011;20637;55.770;37.592;2022-08-30T11:51:21;17.95;;;10.45;;
34373;SDS011;20637;55.770;37.592;2022-08-30T11:53:56;14.02;;;12.00;;
34373;SDS011;20637;55.770;37.592;2022-08-30T11:56:51;17.63;;;11.50;;
34373;SDS011;20637;55.770;37.592;2022-08-30T12:01:51;18.73;;;13.30;;
34373;SDS011;20637;55.770;37.592;2022-08-30T12:06:45;15.70;;;12.68;;
34373;SDS011;20637;55.770;37.592;2022-08-30T12:11:58;13.18;;;11.55;;
34373;SDS011;20637;55.770;37.592;2022-08-30T12:17:10;15.73;;;11.85;;
34373;SDS011;20637;55.770;37.592;2022-08-30T12:19:57;13.98;;;11.55;;
34373;SDS011;20637;55.770;37.592;2022-08-30T12:22:24;17.33;;;12.65;;
34373;SDS011;20637;55.770;37.592;2022-08-30T12:24:51;17.63;;;12.90;;
34373;SDS011;20637;55.770;37.592;2022-08-30T12:27:26;16.42;;;13.48;;
34373;SDS011;20637;55.770;37.592;2022-08-30T12:30:00;15.88;;;13.10;;
34373;SDS011;20637;55.770;37.592;2022-08-30T12:32:31;15.82;;;13.27;;
34373;SDS011;20637;55.770;37.592;2022-08-30T12:34:58;15.50;;;13.90;;
34373;SDS011;20637;55.770;37.592;2022-08-30T12:37:32;16.92;;;13.77;;
34373;SDS011;20637;55.770;37.592;2022-08-30T12:42:36;17.90;;;14.75;;
34373;SDS011;20637;55.770;37.592;2022-08-30T12:45:09;22.27;;;15.48;;
34373;SDS011;20637;55.770;37.592;2022-08-30T12:47:42;19.50;;;15.18;;
34373;SDS011;20637;55.770;37.592;2022-08-30T12:50:28;30.02;;;15.85;;
34373;SDS011;20637;55.770;37.592;2022-08-30T12:53:30;19.90;;;15.65;;
34373;SDS011;20637;55.770;37.592;2022-08-30T12:56:03;23.42;;;15.15;;
34373;SDS011;20637;55.770;37.592;2022-08-30T12:58:40;18.52;;;15.27;;
34373;SDS011;20637;55.770;37.592;2022-08-30T13:04:11;20.13;;;14.25;;
34373;SDS011;20637;55.770;37.592;2022-08-30T13:06:52;20.70;;;15.10;;
34373;SDS011;20637;55.770;37.592;2022-08-30T13:09:28;19.42;;;15.10;;
34373;SDS011;20637;55.770;37.592;2022-08-30T13:12:07;20.92;;;15.23;;
34373;SDS011;20637;55.770;37.592;2022-08-30T13:14:36;17.65;;;15.32;;
34373;SDS011;20637;55.770;37.592;2022-08-30T13:17:09;19.38;;;14.60;;
34373;SDS011;20637;55.770;37.592;2022-08-30T13:19:38;18.50;;;14.88;;
34373;SDS011;20637;55.770;37.592;2022-08-30T13:25:26;15.88;;;14.18;;
34373;SDS011;20637;55.770;37.592;2022-08-30T13:27:53;19.63;;;15.38;;
34373;SDS011;20637;55.770;37.592;2022-08-30T13:30:18;17.90;;;14.48;;
34373;SDS011;20637;55.770;37.592;2022-08-30T13:32:44;20.33;;;14.48;;
34373;SDS011;20637;55.770;37.592;2022-08-30T13:35:10;20.35;;;14.32;;
34373;SDS011;20637;55.770;37.592;2022-08-30T13:37:38;16.55;;;14.90;;
34373;SDS011;20637;55.770;37.592;2022-08-30T13:40:06;17.15;;;13.05;;
34373;SDS011;20637;55.770;37.592;2022-08-30T13:42:33;18.67;;;13.38;;
34373;SDS011;20637;55.770;37.592;2022-08-30T13:44:59;17.75;;;13.57;;
34373;SDS011;20637;55.770;37.592;2022-08-30T13:47:25;16.45;;;13.90;;
34373;SDS011;20637;55.770;37.592;2022-08-30T13:49:51;16.20;;;13.35;;
34373;SDS011;20637;55.770;37.592;2022-08-30T13:52:17;18.98;;;12.95;;
34373;SDS011;20637;55.770;37.592;2022-08-30T13:54:53;17.58;;;13.20;;
34373;SDS011;20637;55.770;37.592;2022-08-30T13:57:21;17.88;;;14.32;;
34373;SDS011;20637;55.770;37.592;2022-08-30T13:59:48;18.35;;;13.68;;
34373;SDS011;20637;55.770;37.592;2022-08-30T14:02:14;16.33;;;12.95;;
34373;SDS011;20637;55.770;37.592;2022-08-30T14:04:40;15.95;;;12.75;;
34373;SDS011;20637;55.770;37.592;2022-08-30T14:07:05;16.95;;;13.10;;
34373;SDS011;20637;55.770;37.592;2022-08-30T14:09:31;15.25;;;12.63;;
34373;SDS011;20637;55.770;37.592;2022-08-30T14:11:57;16.35;;;12.43;;
34373;SDS011;20637;55.770;37.592;2022-08-30T14:14:23;18.35;;;12.57;;
34373;SDS011;20637;55.770;37.592;2022-08-30T14:16:49;16.20;;;13.48;;
34373;SDS011;20637;55.770;37.592;2022-08-30T14:19:15;17.17;;;12.48;;
34373;SDS011;20637;55.770;37.592;2022-08-30T14:21:42;16.33;;;13.27;;
34373;SDS011;20637;55.770;37.592;2022-08-30T14:24:08;13.98;;;11.32;;
34373;SDS011;20637;55.770;37.592;2022-08-30T14:26:39;15.38;;;11.07;;
34373;SDS011;20637;55.770;37.592;2022-08-30T14:29:10;14.00;;;9.85;;
34373;SDS011;20637;55.770;37.592;2022-08-30T14:31:39;15.77;;;9.80;;
34373;SDS011;20637;55.770;37.592;2022-08-30T14:34:06;11.93;;;9.77;;
34373;SDS011;20637;55.770;37.592;2022-08-30T14:36:33;18.35;;;10.70;;
34373;SDS011;20637;55.770;37.592;2022-08-30T14:39:06;13.88;;;8.95;;
34373;SDS011;20637;55.770;37.592;2022-08-30T14:41:32;16.10;;;9.50;;
34373;SDS011;20637;55.770;37.592;2022-08-30T14:43:58;16.95;;;9.52;;
34373;SDS011;20637;55.770;37.592;2022-08-30T14:46:24;13.05;;;9.15;;
34373;SDS011;20637;55.770;37.592;2022-08-30T14:48:53;15.60;;;8.48;;
34373;SDS011;20637;55.770;37.592;2022-08-30T14:51:20;16.58;;;8.30;;
34373;SDS011;20637;55.770;37.592;2022-08-30T14:53:49;14.48;;;8.60;;
34373;SDS011;20637;55.770;37.592;2022-08-30T14:56:16;12.88;;;7.75;;
34373;SDS011;20637;55.770;37.592;2022-08-30T14:58:43;13.18;;;8.32;;
34373;SDS011;20637;55.770;37.592;2022-08-30T15:01:09;11.57;;;6.32;;
34373;SDS011;20637;55.770;37.592;2022-08-30T15:03:37;13.48;;;8.05;;
34373;SDS011;20637;55.770;37.592;2022-08-30T15:06:03;13.80;;;7.35;;
34373;SDS011;20637;55.770;37.592;2022-08-30T15:08:30;12.15;;;6.28;;
34373;SDS011;20637;55.770;37.592;2022-08-30T15:10:57;13.90;;;6.07;;
34373;SDS011;20637;55.770;37.592;2022-08-30T15:13:24;13.15;;;5.60;;
34373;SDS011;20637;55.770;37.592;2022-08-30T15:15:51;13.15;;;4.85;;
34373;SDS011;20637;55.770;37.592;2022-08-30T15:18:16;10.43;;;5.20;;
34373;SDS011;20637;55.770;37.592;2022-08-30T15:20:43;13.82;;;5.68;;
34373;SDS011;20637;55.770;37.592;2022-08-30T15:23:11;11.48;;;5.03;;
34373;SDS011;20637;55.770;37.592;2022-08-30T15:25:36;14.10;;;5.65;;
34373;SDS011;20637;55.770;37.592;2022-08-30T15:28:02;14.85;;;6.20;;
34373;SDS011;20637;55.770;37.592;2022-08-30T15:30:29;13.57;;;5.72;;
34373;SDS011;20637;55.770;37.592;2022-08-30T15:32:57;12.02;;;5.78;;
34373;SDS011;20637;55.770;37.592;2022-08-30T15:35:23;15.13;;;5.97;;
34373;SDS011;20637;55.770;37.592;2022-08-30T15:37:49;17.13;;;5.55;;
34373;SDS011;20637;55.770;37.592;2022-08-30T15:40:17;18.55;;;6.28;;
34373;SDS011;20637;55.770;37.592;2022-08-30T15:42:44;19.08;;;6.40;;
34373;SDS011;20637;55.770;37.592;2022-08-30T15:45:11;16.77;;;6.28;;